aviador You're here:

OIMB Decoded Metar

BIRJAND in IRAN
Report Time2017-08-24 03:00:00
UTC Time2017-08-24 03:09:17
Flight Rules vfr VFR
Wind130° at 06 kt
W.Decomp.*RWY 10: 5.3 kt HW 2.8 kt RCW
RWY 08: 4.0 kt HW 4.5 kt RCW
W.Rank130° ranks 8
Current wind is below 130° avg. (6.0)
Visibility9999 m
Phenomena:N/A
Clouds:N/A
Expected CloudBase > 10,000 ft AGL from Temp-Dew spread
CeilingNone
Temp16°C (ISA +11)
Dew Point-9°C (17% RH)
AAT10.9°C
QNH1016 hPa
Density Alt6,086 ft
Elevation4,892 ft
Report Wrong Elevation
Raw Report
METAR OIMB 240300Z 13006KT CAVOK 16/M09 Q1016=

Extra information for OIMB:More info

Metar Taf Metar & Taf Last 4 Metars F.Rules Stats Wind Profile Meteogram Temp Stats Airport Information Weather charts Add Link Nearby VenuesMetar ALERT Operation Metar Decoded Social comments